Time;durP1;ratioP1;P1;durP2;ratioP2;P2;SDS_P1;SDS_P2;PMS_P1;PMS_P2;Temp;Humidity;BMP_temperature;BMP_pressure;BME280_temperature;BME280_humidity;BME280_pressure;Samples;Min_cycle;Max_cycle;Signal;HPM_P1;HPM_P2
2023/01/06 00:01:04;;;;;;;12.90;2.60;;;;;;;4.08;100.00;101560.44;5057286;28;20445;-77
2023/01/06 00:03:31;;;;;;;9.67;2.77;;;;;;;3.96;100.00;101563.91;5057371;28;20434;-77
2023/01/06 00:05:58;;;;;;;11.70;3.43;;;;;;;3.91;100.00;101579.06;5057361;28;20507;-77
2023/01/06 00:08:25;;;;;;;7.00;2.57;;;;;;;3.98;100.00;101582.44;5057156;28;20466;-77
2023/01/06 00:10:53;;;;;;;7.40;2.50;;;;;;;3.93;100.00;101571.59;5057159;28;20481;-77
2023/01/06 00:13:20;;;;;;;7.53;2.07;;;;;;;4.01;100.00;101571.25;5056941;28;20887;-77
2023/01/06 00:15:47;;;;;;;8.37;2.63;;;;;;;3.98;100.00;101563.66;5056978;28;20908;-78
2023/01/06 00:18:14;;;;;;;6.50;2.50;;;;;;;4.04;100.00;101560.06;5057206;28;20739;-77
2023/01/06 00:20:41;;;;;;;13.00;2.40;;;;;;;4.10;99.82;101544.91;5056935;28;20473;-77
2023/01/06 00:23:07;;;;;;;6.37;2.20;;;;;;;4.03;100.00;101548.53;5057067;28;20450;-77
2023/01/06 00:25:34;;;;;;;5.50;2.60;;;;;;;4.11;100.00;101549.22;5056920;28;20496;-77
2023/01/06 00:28:02;;;;;;;9.60;2.27;;;;;;;4.10;100.00;101553.78;5056441;28;21057;-77
2023/01/06 00:30:28;;;;;;;12.53;3.43;;;;;;;4.04;100.00;101574.28;5056581;28;20430;-77
2023/01/06 00:32:55;;;;;;;11.37;2.70;;;;;;;4.04;100.00;101566.25;5056380;28;20816;-77
2023/01/06 00:35:22;;;;;;;9.53;2.97;;;;;;;4.17;100.00;101551.78;5056735;28;20576;-77
2023/01/06 00:37:48;;;;;;;8.83;2.77;;;;;;;4.22;100.00;101551.91;5056671;28;20897;-77
2023/01/06 00:40:15;;;;;;;7.20;2.53;;;;;;;4.07;100.00;101556.91;5056359;28;20521;-77
2023/01/06 00:42:41;;;;;;;10.70;2.70;;;;;;;4.01;100.00;101550.63;5080501;22;20581;-68
2023/01/06 00:45:10;;;;;;;6.93;2.40;;;;;;;4.02;100.00;101562.97;5056430;28;20533;-68
2023/01/06 00:47:37;;;;;;;5.83;2.00;;;;;;;3.89;100.00;101563.19;5056127;28;20449;-68
2023/01/06 00:50:04;;;;;;;5.57;2.23;;;;;;;3.90;100.00;101566.72;5056095;28;20438;-68
2023/01/06 00:52:31;;;;;;;7.03;2.33;;;;;;;3.90;100.00;101564.03;5056003;28;20898;-68
2023/01/06 00:54:57;;;;;;;8.17;2.33;;;;;;;3.95;100.00;101561.47;5055931;28;20516;-68
2023/01/06 00:57:24;;;;;;;6.70;2.03;;;;;;;4.05;100.00;101550.97;5055895;28;20442;-68
2023/01/06 00:59:50;;;;;;;5.53;1.60;;;;;;;4.03;100.00;101561.94;5055558;28;20438;-68
2023/01/06 01:02:18;;;;;;;7.10;2.13;;;;;;;4.00;100.00;101559.72;5055609;28;20501;-68
2023/01/06 01:04:45;;;;;;;9.00;2.23;;;;;;;3.97;100.00;101554.00;5055760;28;20442;-69
2023/01/06 01:07:11;;;;;;;8.33;2.20;;;;;;;3.96;100.00;101549.69;5055492;28;20940;-68
2023/01/06 01:09:38;;;;;;;5.93;1.97;;;;;;;3.94;100.00;101554.47;5055767;28;20442;-68
2023/01/06 01:12:11;;;;;;;8.10;2.40;;;;;;;3.95;100.00;101545.41;5055633;28;20482;-68
2023/01/06 01:14:41;;;;;;;7.60;2.00;;;;;;;4.02;100.00;101540.72;5055298;28;20430;-68
2023/01/06 01:17:09;;;;;;;7.53;1.87;;;;;;;4.09;100.00;101549.47;5055554;28;20495;-68
2023/01/06 01:19:38;;;;;;;5.90;2.27;;;;;;;4.20;100.00;101543.25;5055262;28;20521;-69
2023/01/06 01:22:04;;;;;;;7.07;1.93;;;;;;;4.26;100.00;101534.28;5055479;28;20454;-68
2023/01/06 01:24:31;;;;;;;5.40;1.43;;;;;;;4.40;100.00;101531.34;5055393;28;20456;-68
2023/01/06 01:26:58;;;;;;;7.07;1.90;;;;;;;4.46;100.00;101525.84;5055427;28;20442;-68
2023/01/06 01:29:26;;;;;;;5.50;1.40;;;;;;;4.52;100.00;101524.91;5055363;28;20461;-68
2023/01/06 01:31:53;;;;;;;4.97;1.20;;;;;;;4.60;100.00;101518.34;5056673;28;20498;-68
2023/01/06 01:34:20;;;;;;;7.67;1.83;;;;;;;4.67;100.00;101510.19;5055255;28;20449;-68
2023/01/06 01:36:49;;;;;;;5.30;1.60;;;;;;;4.83;100.00;101514.78;5055153;28;20490;-68
2023/01/06 01:39:19;;;;;;;5.20;1.27;;;;;;;4.93;100.00;101520.34;5054922;28;20438;-69
2023/01/06 01:41:45;;;;;;;6.20;1.27;;;;;;;5.04;100.00;101527.50;5054599;28;20987;-67
2023/01/06 01:45:01;;;;;;;5.07;0.93;;;;;;;5.13;100.00;101529.81;5055085;28;20450;-67
2023/01/06 01:47:37;;;;;;;7.20;1.33;;;;;;;5.17;99.20;101523.72;4993369;28;20512;-67
2023/01/06 01:50:10;;;;;;;7.93;1.50;;;;;;;5.29;98.52;101519.09;5044056;28;20540;-68
2023/01/06 01:52:39;;;;;;;5.13;1.20;;;;;;;5.37;97.83;101514.41;5054925;28;20461;-67
2023/01/06 01:55:07;;;;;;;4.80;1.17;;;;;;;5.39;97.36;101515.78;5054515;28;20568;-67
2023/01/06 01:57:39;;;;;;;4.67;1.03;;;;;;;5.43;97.15;101506.16;5054795;28;20481;-67
2023/01/06 02:00:08;;;;;;;6.23;1.10;;;;;;;5.47;96.87;101509.19;5054554;28;20800;-67
2023/01/06 02:02:36;;;;;;;10.37;1.23;;;;;;;5.58;97.00;101521.75;5054628;28;20466;-67
2023/01/06 02:05:03;;;;;;;4.60;1.00;;;;;;;5.60;96.78;101514.25;5054759;28;20477;-67
2023/01/06 02:07:30;;;;;;;10.33;1.97;;;;;;;5.55;95.57;101511.47;5054679;28;20482;-68
2023/01/06 02:10:07;;;;;;;5.00;1.10;;;;;;;5.59;95.19;101511.81;5054302;28;20459;-68
2023/01/06 02:12:34;;;;;;;6.87;1.20;;;;;;;5.64;95.66;101515.38;5054557;28;20458;-67
2023/01/06 02:15:00;;;;;;;4.80;1.43;;;;;;;5.59;95.63;101518.00;5053894;28;20546;-67
2023/01/06 02:17:47;;;;;;;4.93;1.10;;;;;;;5.60;95.74;101508.84;5054096;28;20454;-68
2023/01/06 02:20:29;;;;;;;5.57;1.03;;;;;;;5.57;94.94;101495.91;5054137;28;20429;-67
2023/01/06 02:23:32;;;;;;;4.70;1.20;;;;;;;5.72;94.32;101495.34;5054027;28;20848;-67
2023/01/06 02:26:52;;;;;;;6.70;1.40;;;;;;;5.71;93.87;101494.53;5054307;28;20520;-67
2023/01/06 02:29:50;;;;;;;5.70;0.90;;;;;;;5.73;93.78;101487.03;5029595;28;20439;-67
2023/01/06 02:32:36;;;;;;;5.70;1.10;;;;;;;5.75;93.98;101487.56;5053867;28;20466;-67
2023/01/06 02:35:17;;;;;;;4.00;0.70;;;;;;;5.75;94.89;101484.88;5053761;28;20927;-67
2023/01/06 02:37:56;;;;;;;5.60;1.50;;;;;;;5.82;95.30;101479.34;5053718;28;20505;-68
2023/01/06 02:40:36;;;;;;;5.93;1.00;;;;;;;5.82;95.59;101473.97;5054091;28;20422;-71
2023/01/06 02:43:14;;;;;;;8.07;1.57;;;;;;;5.91;95.22;101477.06;5053628;28;20552;-72
2023/01/06 02:45:50;;;;;;;4.70;1.30;;;;;;;5.97;94.93;101476.09;5053933;28;20428;-71
2023/01/06 02:48:27;;;;;;;5.37;1.03;;;;;;;6.03;94.34;101480.50;5053898;28;20433;-69
2023/01/06 02:51:02;;;;;;;4.33;0.80;;;;;;;6.05;94.33;101478.34;5053488;28;20915;-69
2023/01/06 02:53:36;;;;;;;4.73;1.17;;;;;;;6.10;94.27;101481.09;5053781;28;20450;-69
2023/01/06 02:56:03;;;;;;;5.80;0.90;;;;;;;6.16;94.01;101480.13;5053318;28;20466;-68
2023/01/06 02:58:35;;;;;;;5.27;1.57;;;;;;;6.14;93.91;101476.88;5053753;28;20457;-68
2023/01/06 03:01:07;;;;;;;6.70;1.50;;;;;;;6.19;93.94;101468.03;5053679;28;20470;-67
2023/01/06 03:03:39;;;;;;;4.90;1.13;;;;;;;6.24;93.33;101474.31;5053670;28;20423;-68
2023/01/06 03:06:10;;;;;;;4.37;1.03;;;;;;;6.30;92.95;101469.81;5053331;28;20904;-68
2023/01/06 03:08:37;;;;;;;5.60;1.43;;;;;;;6.35;92.95;101477.13;5053295;28;21014;-68
2023/01/06 03:11:04;;;;;;;4.50;1.30;;;;;;;6.37;92.75;101462.34;5053436;28;20466;-67
2023/01/06 03:13:37;;;;;;;5.27;1.20;;;;;;;6.31;92.47;101448.03;5053398;28;20438;-67
2023/01/06 03:16:05;;;;;;;4.50;1.13;;;;;;;6.31;92.68;101447.22;5053329;28;20462;-68
2023/01/06 03:18:32;;;;;;;6.37;1.10;;;;;;;6.35;92.70;101448.34;5053264;28;20442;-68
2023/01/06 03:21:04;;;;;;;5.10;1.20;;;;;;;6.37;92.55;101443.50;5053171;28;20545;-68
2023/01/06 03:23:32;;;;;;;5.07;1.40;;;;;;;6.41;92.16;101438.44;5053341;28;20431;-68
2023/01/06 03:25:59;;;;;;;5.90;1.13;;;;;;;6.38;92.01;101438.97;5052589;28;20439;-68
2023/01/06 03:28:26;;;;;;;4.60;0.93;;;;;;;6.29;91.73;101436.72;5052788;28;20476;-68
2023/01/06 03:31:05;;;;;;;4.70;1.17;;;;;;;6.33;91.33;101437.03;5053152;28;20445;-68
2023/01/06 03:33:38;;;;;;;5.03;0.90;;;;;;;6.25;92.01;101446.34;5053261;28;20444;-67
2023/01/06 03:36:17;;;;;;;6.67;1.40;;;;;;;6.31;92.14;101439.16;5052808;28;20463;-68
2023/01/06 03:38:51;;;;;;;8.30;1.20;;;;;;;6.36;91.53;101433.00;5053135;28;20432;-67
2023/01/06 03:43:10;;;;;;;10.50;1.27;;;;;;;6.30;92.43;101427.56;5053054;28;20501;-68
2023/01/06 03:44:24;;;;;;;5.77;0.97;;;;;;;6.29;92.31;101435.91;5052643;28;20865;-67
2023/01/06 03:46:59;;;;;;;5.87;1.50;;;;;;;6.29;92.55;101425.16;5052615;28;20430;-68
2023/01/06 03:49:31;;;;;;;5.30;1.40;;;;;;;6.36;92.48;101425.75;5052931;28;20441;-68
2023/01/06 03:52:03;;;;;;;5.93;1.33;;;;;;;6.33;92.28;101410.13;5052890;28;20494;-69
2023/01/06 03:54:37;;;;;;;6.73;1.03;;;;;;;6.30;93.32;101411.44;5052882;28;20484;-69
2023/01/06 03:57:07;;;;;;;6.30;1.40;;;;;;;6.31;93.43;101412.25;5052489;28;20975;-69
2023/01/06 03:59:38;;;;;;;4.23;1.00;;;;;;;6.36;93.63;101408.78;5052573;28;20430;-69
2023/01/06 04:02:05;;;;;;;5.43;1.53;;;;;;;6.38;93.52;101406.69;5052887;28;20468;-68
2023/01/06 04:04:32;;;;;;;6.13;1.20;;;;;;;6.40;93.91;101402.66;5052531;28;20443;-69
2023/01/06 04:07:00;;;;;;;4.93;1.33;;;;;;;6.45;93.78;101401.91;5052954;28;20943;-69
2023/01/06 04:09:26;;;;;;;5.67;1.40;;;;;;;6.49;93.45;101403.81;5052865;28;20543;-69
2023/01/06 04:14:37;;;;;;;5.30;1.07;;;;;;;6.54;93.70;101400.38;5052591;28;20906;-69
2023/01/06 04:17:04;;;;;;;8.50;1.40;;;;;;;6.51;94.01;101403.59;5052332;28;20477;-69
2023/01/06 04:19:30;;;;;;;9.20;1.50;;;;;;;6.48;94.00;101394.13;5052244;28;20446;-69
2023/01/06 04:21:57;;;;;;;6.40;1.60;;;;;;;6.48;94.08;101394.13;5052582;28;20464;-69
2023/01/06 04:24:25;;;;;;;5.50;1.53;;;;;;;6.51;94.34;101387.44;5052625;28;20466;-69
2023/01/06 04:26:51;;;;;;;5.53;0.90;;;;;;;6.51;94.60;101388.25;5052328;28;20878;-69
2023/01/06 04:29:18;;;;;;;5.17;1.37;;;;;;;6.58;94.39;101377.25;5052530;28;20438;-69
2023/01/06 04:31:44;;;;;;;5.10;1.13;;;;;;;6.56;94.59;101376.72;5052553;28;20468;-68
2023/01/06 04:34:11;;;;;;;4.80;1.53;;;;;;;6.60;94.48;101377.84;5052566;28;20438;-68
2023/01/06 04:36:37;;;;;;;5.30;1.43;;;;;;;6.65;94.30;101372.50;5052452;28;20478;-68
2023/01/06 04:39:04;;;;;;;4.23;0.90;;;;;;;6.64;93.96;101372.75;5055516;28;20442;-68
2023/01/06 04:41:32;;;;;;;4.50;1.07;;;;;;;6.54;93.79;101366.19;5056216;28;20462;-67
2023/01/06 04:43:59;;;;;;;5.70;1.57;;;;;;;6.51;94.64;101361.34;5055794;28;20943;-68
2023/01/06 04:46:25;;;;;;;4.50;1.00;;;;;;;6.48;94.31;101334.13;5056095;28;20465;-68
2023/01/06 04:48:52;;;;;;;5.83;1.20;;;;;;;6.44;94.57;101335.69;5056049;28;20525;-68
2023/01/06 04:51:18;;;;;;;7.93;1.80;;;;;;;6.45;95.06;101338.13;5055877;28;20468;-68
2023/01/06 04:53:45;;;;;;;6.30;0.90;;;;;;;6.44;94.99;101330.31;5055587;28;21038;-68
2023/01/06 04:56:13;;;;;;;5.00;1.10;;;;;;;6.47;95.59;101319.84;5055878;28;20571;-68
2023/01/06 04:58:41;;;;;;;4.60;0.93;;;;;;;6.51;95.03;101317.47;5055576;28;20457;-68
2023/01/06 05:01:10;;;;;;;4.50;1.00;;;;;;;6.50;94.86;101315.81;5055593;28;21041;-68
2023/01/06 05:03:37;;;;;;;8.17;1.40;;;;;;;6.52;95.01;101306.44;5055916;28;20459;-68
2023/01/06 05:06:08;;;;;;;4.13;0.83;;;;;;;6.48;94.72;101309.91;5055525;28;20439;-68
2023/01/06 05:08:35;;;;;;;5.80;1.10;;;;;;;6.44;95.42;101311.47;5055814;28;20431;-67
2023/01/06 05:11:04;;;;;;;5.33;1.07;;;;;;;6.46;95.50;101306.63;5055284;28;20549;-67
2023/01/06 05:13:32;;;;;;;4.70;1.10;;;;;;;6.39;96.05;101308.75;5055695;28;20445;-68
2023/01/06 05:16:00;;;;;;;6.97;1.40;;;;;;;6.38;95.75;101313.31;5055642;28;20438;-68
2023/01/06 05:18:26;;;;;;;5.40;1.43;;;;;;;6.45;96.08;101305.81;5055624;28;20529;-68
2023/01/06 05:20:54;;;;;;;5.20;0.97;;;;;;;6.51;96.54;101306.72;5055615;28;20445;-69
2023/01/06 05:23:21;;;;;;;4.70;0.97;;;;;;;6.49;96.43;101298.06;5055201;28;20891;-69
2023/01/06 05:25:50;;;;;;;8.13;1.23;;;;;;;6.47;96.71;101287.56;5055538;28;20438;-69
2023/01/06 05:28:18;;;;;;;8.40;1.30;;;;;;;6.50;96.99;101302.38;5055116;28;20496;-73
2023/01/06 05:30:45;;;;;;;7.60;1.40;;;;;;;6.43;96.78;101301.78;5055383;28;20893;-67
2023/01/06 05:33:13;;;;;;;5.17;1.20;;;;;;;6.46;96.56;101304.78;5055081;28;20973;-67
2023/01/06 05:35:39;;;;;;;4.37;1.20;;;;;;;6.47;97.68;101306.41;5055409;28;20465;-68
2023/01/06 05:38:06;;;;;;;7.93;2.00;;;;;;;6.48;97.60;101291.88;5055144;28;20486;-68
2023/01/06 05:40:34;;;;;;;4.97;1.40;;;;;;;6.47;98.29;101282.19;5055139;28;20452;-67
2023/01/06 05:43:00;;;;;;;5.40;1.63;;;;;;;6.41;100.00;101288.56;5054374;28;20506;-68
2023/01/06 05:45:27;;;;;;;6.43;1.60;;;;;;;6.44;100.00;101293.44;5054464;28;20813;-68
2023/01/06 05:47:54;;;;;;;6.43;1.80;;;;;;;6.40;100.00;101281.56;5054793;28;20438;-68
2023/01/06 05:50:21;;;;;;;4.93;1.00;;;;;;;6.45;100.00;101286.19;5053789;28;20837;-68
2023/01/06 05:52:48;;;;;;;5.63;1.57;;;;;;;6.49;100.00;101285.41;5054575;28;20505;-68
2023/01/06 05:55:15;;;;;;;4.60;1.10;;;;;;;6.52;100.00;101284.09;5054675;28;20457;-68
2023/01/06 05:57:41;;;;;;;8.23;2.10;;;;;;;6.53;100.00;101288.41;5054817;28;20569;-68
2023/01/06 06:00:09;;;;;;;5.50;1.70;;;;;;;6.53;100.00;101301.88;5054830;28;20541;-68
2023/01/06 06:02:36;;;;;;;6.77;1.80;;;;;;;6.57;100.00;101295.72;5054414;28;20494;-67
2023/01/06 06:05:02;;;;;;;7.37;1.87;;;;;;;6.60;100.00;101291.72;5054791;28;20564;-68
2023/01/06 06:07:30;;;;;;;5.30;1.33;;;;;;;6.59;100.00;101268.53;5054657;28;20443;-68
2023/01/06 06:09:57;;;;;;;5.97;1.37;;;;;;;6.55;100.00;101253.97;5054624;28;20481;-69
2023/01/06 06:12:24;;;;;;;9.00;2.00;;;;;;;6.50;100.00;101245.84;5053876;28;20549;-69
2023/01/06 06:14:50;;;;;;;9.87;2.13;;;;;;;6.46;100.00;101252.81;5054120;28;20529;-69
2023/01/06 06:17:17;;;;;;;8.90;2.00;;;;;;;6.45;100.00;101248.50;5054053;28;20578;-69
2023/01/06 06:19:43;;;;;;;4.60;1.30;;;;;;;6.45;100.00;101254.69;5053770;28;20538;-70
2023/01/06 06:22:10;;;;;;;6.47;1.30;;;;;;;6.41;100.00;101250.09;5053941;28;20470;-68
2023/01/06 06:24:38;;;;;;;4.70;1.17;;;;;;;6.45;100.00;101245.81;5054017;28;20449;-68
2023/01/06 06:27:04;;;;;;;8.13;2.10;;;;;;;6.40;100.00;101251.16;5054237;28;20442;-68
2023/01/06 06:29:31;;;;;;;5.77;1.77;;;;;;;6.41;100.00;101252.78;5054251;28;20438;-68
2023/01/06 06:31:58;;;;;;;6.17;1.87;;;;;;;6.30;100.00;101250.00;5054191;28;20501;-68
2023/01/06 06:34:24;;;;;;;5.20;1.50;;;;;;;6.36;100.00;101242.78;5054236;28;20534;-69
2023/01/06 06:36:51;;;;;;;5.70;1.80;;;;;;;6.32;100.00;101247.88;5053990;28;20478;-68
2023/01/06 06:39:18;;;;;;;7.00;1.77;;;;;;;6.37;100.00;101239.03;5054081;28;20446;-68
2023/01/06 06:41:46;;;;;;;6.03;1.90;;;;;;;6.45;100.00;101233.16;5053654;28;20478;-68
2023/01/06 06:44:12;;;;;;;10.13;1.83;;;;;;;6.45;100.00;101229.66;5053712;28;20932;-69
2023/01/06 06:46:39;;;;;;;8.10;1.40;;;;;;;6.46;100.00;101226.75;5053629;28;20481;-69
2023/01/06 06:49:06;;;;;;;8.33;2.03;;;;;;;6.44;100.00;101219.97;5053922;28;20438;-70
2023/01/06 06:51:32;;;;;;;5.50;1.60;;;;;;;6.42;100.00;101219.41;5053776;28;20474;-67
2023/01/06 06:53:59;;;;;;;17.13;2.30;;;;;;;6.35;100.00;101225.03;5053837;28;20452;-67
2023/01/06 06:56:25;;;;;;;7.27;2.57;;;;;;;6.38;100.00;101224.53;5053715;28;20441;-67
2023/01/06 06:58:53;;;;;;;6.93;1.83;;;;;;;6.43;100.00;101216.50;5053477;28;20449;-68
2023/01/06 07:01:20;;;;;;;5.73;1.80;;;;;;;6.45;100.00;101208.16;5053547;28;20458;-68
2023/01/06 07:03:48;;;;;;;7.37;2.10;;;;;;;6.49;100.00;101211.94;5053688;28;20449;-68
2023/01/06 07:06:19;;;;;;;8.87;2.50;;;;;;;6.44;100.00;101207.34;5053684;28;20438;-68
2023/01/06 07:08:46;;;;;;;8.43;2.57;;;;;;;6.45;100.00;101200.88;5053617;28;20427;-68
2023/01/06 07:11:13;;;;;;;6.37;2.13;;;;;;;6.51;100.00;101197.19;5053535;28;20468;-68
2023/01/06 07:13:39;;;;;;;7.23;1.80;;;;;;;6.48;100.00;101203.06;5053465;28;20435;-68
2023/01/06 07:16:08;;;;;;;7.60;2.90;;;;;;;6.42;100.00;101197.88;5053087;28;21003;-68
2023/01/06 07:18:35;;;;;;;5.80;2.43;;;;;;;6.51;100.00;101199.88;5053277;28;20929;-69
2023/01/06 07:21:02;;;;;;;9.07;2.50;;;;;;;6.57;100.00;101208.78;5053349;28;20462;-72
2023/01/06 07:23:29;;;;;;;7.60;2.60;;;;;;;6.58;100.00;101208.50;5053081;28;20512;-71
2023/01/06 07:25:58;;;;;;;8.07;2.97;;;;;;;6.67;100.00;101208.03;5053389;28;20434;-70
2023/01/06 07:28:25;;;;;;;8.57;2.83;;;;;;;6.70;100.00;101210.22;5053312;28;20439;-68
2023/01/06 07:30:52;;;;;;;7.90;3.00;;;;;;;6.71;100.00;101212.63;5053149;28;20449;-68
2023/01/06 07:33:21;;;;;;;7.20;2.67;;;;;;;6.78;100.00;101207.03;5062048;22;20538;-77
2023/01/06 07:35:52;;;;;;;8.20;2.90;;;;;;;6.81;100.00;101203.81;5053082;28;20446;-77
2023/01/06 07:38:19;;;;;;;14.23;3.40;;;;;;;6.83;100.00;101215.16;5053511;28;20520;-77
2023/01/06 07:40:45;;;;;;;8.13;3.37;;;;;;;6.82;100.00;101222.41;5067707;22;22076;-72
2023/01/06 07:43:12;;;;;;;10.37;3.60;;;;;;;6.86;100.00;101221.88;5053387;28;20828;-71
2023/01/06 07:45:39;;;;;;;9.13;3.60;;;;;;;6.82;100.00;101227.81;5053085;28;20951;-72
2023/01/06 07:48:06;;;;;;;8.37;2.83;;;;;;;6.81;100.00;101215.38;5053320;28;20434;-72
2023/01/06 07:50:34;;;;;;;9.33;2.60;;;;;;;6.88;100.00;101214.38;5053177;28;20474;-73
2023/01/06 07:53:02;;;;;;;9.20;3.70;;;;;;;6.90;100.00;101212.19;5053238;28;20461;-73
2023/01/06 07:55:29;;;;;;;7.40;3.33;;;;;;;6.88;100.00;101201.72;5053247;28;20529;-73
2023/01/06 07:57:57;;;;;;;11.13;3.40;;;;;;;6.93;100.00;101203.63;5053061;28;20494;-73
2023/01/06 08:00:23;;;;;;;11.77;4.17;;;;;;;6.96;100.00;101198.53;5052979;28;20450;-72
2023/01/06 08:02:50;;;;;;;9.20;3.70;;;;;;;6.98;100.00;101190.97;5053134;28;20474;-72
2023/01/06 08:05:17;;;;;;;12.60;3.30;;;;;;;7.01;100.00;101186.97;5053269;28;20442;-72
2023/01/06 08:07:45;;;;;;;7.97;3.73;;;;;;;6.99;100.00;101181.81;5053246;28;20442;-72
2023/01/06 08:10:12;;;;;;;11.63;3.97;;;;;;;7.05;100.00;101177.28;5053012;28;20445;-72
2023/01/06 08:12:39;;;;;;;12.40;3.87;;;;;;;7.03;100.00;101182.91;5053631;28;20929;-72
2023/01/06 08:15:06;;;;;;;6.47;2.70;;;;;;;7.06;100.00;101171.63;5057189;28;20524;-72
2023/01/06 08:17:33;;;;;;;7.37;3.13;;;;;;;7.11;100.00;101178.13;5056575;28;20481;-72
2023/01/06 08:19:59;;;;;;;9.50;2.93;;;;;;;7.15;100.00;101187.28;5056964;28;20450;-71
2023/01/06 08:22:26;;;;;;;10.87;4.33;;;;;;;7.16;100.00;101180.81;5056989;28;20465;-72
2023/01/06 08:24:54;;;;;;;11.60;4.70;;;;;;;7.12;100.00;101169.75;5057264;28;20442;-72
2023/01/06 08:27:21;;;;;;;11.10;3.83;;;;;;;7.13;100.00;101166.00;5056827;28;20525;-71
2023/01/06 08:29:48;;;;;;;9.17;3.80;;;;;;;7.17;100.00;101156.34;5056811;28;20528;-71
2023/01/06 08:32:15;;;;;;;7.23;2.80;;;;;;;7.24;100.00;101154.19;5056473;28;20884;-71
2023/01/06 08:34:42;;;;;;;12.97;4.80;;;;;;;7.31;100.00;101159.34;5056534;28;20431;-71
2023/01/06 08:37:08;;;;;;;12.30;5.20;;;;;;;7.36;100.00;101174.72;5056404;28;20486;-72
2023/01/06 08:39:35;;;;;;;8.73;3.63;;;;;;;7.33;100.00;101173.34;5056233;28;20963;-72
2023/01/06 08:42:03;;;;;;;10.67;4.00;;;;;;;7.37;100.00;101170.94;5056169;28;20509;-71
2023/01/06 08:44:30;;;;;;;10.97;4.37;;;;;;;7.39;100.00;101161.50;5056600;28;20446;-73
2023/01/06 08:46:56;;;;;;;15.10;5.83;;;;;;;7.45;100.00;101148.88;5056075;28;20485;-71
2023/01/06 08:49:23;;;;;;;12.63;4.20;;;;;;;7.50;100.00;101148.88;5056586;28;20815;-72
2023/01/06 08:51:49;;;;;;;12.50;4.20;;;;;;;7.51;100.00;101147.78;5055988;28;20544;-72
2023/01/06 08:54:16;;;;;;;10.20;3.50;;;;;;;7.60;100.00;101138.09;5056013;28;20438;-72
2023/01/06 08:56:43;;;;;;;11.87;4.60;;;;;;;7.56;100.00;101126.22;5055959;28;20442;-71
2023/01/06 08:59:14;;;;;;;8.90;3.90;;;;;;;7.48;100.00;101132.97;5056252;28;20485;-72
2023/01/06 09:01:41;;;;;;;11.40;3.67;;;;;;;7.60;100.00;101143.50;5056000;28;20423;-71
2023/01/06 09:04:09;;;;;;;10.07;3.97;;;;;;;7.67;100.00;101154.03;5056110;28;20452;-71
2023/01/06 09:06:36;;;;;;;12.87;4.27;;;;;;;7.71;100.00;101155.94;5056148;28;20465;-71
2023/01/06 09:09:04;;;;;;;10.83;4.00;;;;;;;7.71;100.00;101147.84;5056121;28;20446;-71
2023/01/06 09:11:31;;;;;;;12.47;4.43;;;;;;;7.74;100.00;101160.75;5055720;28;20809;-72
2023/01/06 09:13:58;;;;;;;11.80;4.77;;;;;;;7.82;100.00;101157.53;5055798;28;20839;-71
2023/01/06 09:16:26;;;;;;;10.07;4.50;;;;;;;7.83;100.00;101153.78;5056126;28;20445;-71
2023/01/06 09:18:52;;;;;;;9.63;4.10;;;;;;;7.91;100.00;101149.72;5055559;28;20492;-71
2023/01/06 09:21:21;;;;;;;13.33;4.23;;;;;;;7.98;100.00;101135.97;5055968;28;20481;-72
2023/01/06 09:23:49;;;;;;;13.07;4.37;;;;;;;7.97;100.00;101126.25;5054786;28;20467;-72
2023/01/06 09:26:17;;;;;;;18.00;4.50;;;;;;;8.05;100.00;101133.81;5055347;28;20442;-72
2023/01/06 09:28:44;;;;;;;13.13;5.30;;;;;;;8.03;100.00;101136.78;5055566;28;20935;-71
2023/01/06 09:31:11;;;;;;;20.63;6.17;;;;;;;8.08;100.00;101135.97;5055760;28;20442;-71
2023/01/06 09:33:40;;;;;;;10.77;4.73;;;;;;;8.12;100.00;101133.56;5055636;28;20586;-72
2023/01/06 09:36:07;;;;;;;12.40;4.63;;;;;;;8.11;100.00;101130.03;5055590;28;20529;-71
2023/01/06 09:38:34;;;;;;;12.03;4.20;;;;;;;8.08;100.00;101123.28;5055490;28;20486;-73
2023/01/06 09:41:14;;;;;;;10.40;4.50;;;;;;;8.12;100.00;101120.88;5055237;28;20453;-71
2023/01/06 09:43:48;;;;;;;12.10;4.70;;;;;;;8.08;100.00;101115.19;5055126;28;20494;-72
2023/01/06 09:46:18;;;;;;;10.10;4.27;;;;;;;8.10;100.00;101114.91;5055349;28;20450;-67
2023/01/06 09:48:55;;;;;;;12.53;4.53;;;;;;;8.15;100.00;101106.84;5055445;28;20509;-74
2023/01/06 09:51:25;;;;;;;14.70;4.67;;;;;;;8.20;100.00;101087.94;5055517;28;20441;-72
2023/01/06 09:53:56;;;;;;;15.10;4.70;;;;;;;8.27;100.00;101088.44;5055186;28;20468;-71
2023/01/06 09:56:24;;;;;;;12.80;4.40;;;;;;;8.34;100.00;101097.09;5055009;28;20422;-71
2023/01/06 09:59:02;;;;;;;10.20;4.17;;;;;;;8.41;100.00;101091.44;5055188;28;20573;-71
2023/01/06 10:01:34;;;;;;;18.23;4.57;;;;;;;8.37;100.00;101087.69;5055047;28;20489;-72
2023/01/06 10:04:02;;;;;;;10.60;4.43;;;;;;;8.43;100.00;101091.16;5055088;28;20799;-71
2023/01/06 10:06:33;;;;;;;10.67;4.27;;;;;;;8.45;100.00;101088.97;5054663;28;20482;-71
2023/01/06 10:09:12;;;;;;;10.53;4.00;;;;;;;8.50;100.00;101070.91;5054683;28;20916;-71
2023/01/06 10:11:51;;;;;;;12.00;4.60;;;;;;;8.58;100.00;101066.81;5054879;28;20435;-71
2023/01/06 10:14:23;;;;;;;13.60;4.67;;;;;;;8.65;100.00;101063.81;5054574;28;20426;-71
2023/01/06 10:17:01;;;;;;;11.80;5.40;;;;;;;8.76;100.00;101054.59;5054818;28;20462;-71
2023/01/06 10:19:43;;;;;;;9.33;3.70;;;;;;;8.82;100.00;101062.41;5054375;28;20497;-71
2023/01/06 10:22:19;;;;;;;11.40;4.50;;;;;;;8.90;100.00;101068.28;5054720;28;20466;-71
2023/01/06 10:24:55;;;;;;;16.10;4.93;;;;;;;8.89;100.00;101064.78;5054391;28;20518;-71
2023/01/06 10:27:26;;;;;;;11.67;5.07;;;;;;;8.91;100.00;101059.13;5054564;28;20476;-71
2023/01/06 10:29:56;;;;;;;11.67;4.83;;;;;;;8.99;100.00;101042.34;5054310;28;20781;-72
2023/01/06 10:32:28;;;;;;;9.17;3.57;;;;;;;9.05;100.00;101035.81;5054198;28;20506;-71
2023/01/06 10:34:56;;;;;;;8.10;3.60;;;;;;;9.13;100.00;101029.81;5054605;28;20431;-72
2023/01/06 10:37:30;;;;;;;16.03;4.83;;;;;;;9.22;100.00;101027.31;5054235;28;20442;-72
2023/01/06 10:40:03;;;;;;;12.73;4.73;;;;;;;9.23;100.00;101021.63;5053943;28;20810;-72
2023/01/06 10:42:59;;;;;;;11.77;4.83;;;;;;;9.29;100.00;101041.31;5053743;28;20504;-72
2023/01/06 10:45:29;;;;;;;17.20;4.60;;;;;;;9.35;100.00;101029.38;5054384;28;20809;-72
2023/01/06 10:47:56;;;;;;;9.03;4.03;;;;;;;9.39;100.00;101035.84;5054209;28;20517;-72
2023/01/06 10:50:24;;;;;;;8.90;4.13;;;;;;;9.43;100.00;101045.03;5053927;28;20442;-71
2023/01/06 10:52:51;;;;;;;11.63;4.03;;;;;;;9.34;100.00;101034.00;5053716;28;20470;-72
2023/01/06 10:55:33;;;;;;;10.33;4.20;;;;;;;9.37;100.00;101035.31;5054113;28;20441;-72
2023/01/06 10:58:10;;;;;;;10.90;3.43;;;;;;;9.36;100.00;101031.00;5054110;28;20553;-71
2023/01/06 11:00:37;;;;;;;14.37;4.43;;;;;;;9.32;100.00;101029.94;5054394;28;20489;-72
2023/01/06 11:03:05;;;;;;;10.53;3.50;;;;;;;9.31;100.00;101021.03;5053795;28;20464;-72
2023/01/06 11:05:34;;;;;;;10.87;4.60;;;;;;;9.33;100.00;101021.53;5053522;28;20947;-72
2023/01/06 11:08:06;;;;;;;10.97;4.57;;;;;;;9.35;100.00;101013.97;5053914;28;20488;-72
2023/01/06 11:10:37;;;;;;;8.83;3.93;;;;;;;9.38;100.00;101011.78;5053825;28;20426;-71
2023/01/06 11:13:06;;;;;;;10.03;4.33;;;;;;;9.32;100.00;101006.41;5053840;28;20474;-72
2023/01/06 11:15:40;;;;;;;11.40;3.80;;;;;;;9.33;100.00;101002.63;5053769;28;20442;-72
2023/01/06 11:18:19;;;;;;;11.10;4.40;;;;;;;9.37;100.00;101002.88;5053569;28;20482;-72
2023/01/06 11:21:03;;;;;;;9.10;4.00;;;;;;;9.40;100.00;100998.81;5053608;28;20469;-72
2023/01/06 11:23:30;;;;;;;6.97;2.83;;;;;;;9.42;100.00;100993.91;5053595;28;20462;-71
2023/01/06 11:26:02;;;;;;;10.30;3.83;;;;;;;9.46;100.00;100993.06;5053185;28;20442;-72
2023/01/06 11:28:30;;;;;;;9.20;3.20;;;;;;;9.50;100.00;100979.78;5053328;28;20968;-72
2023/01/06 11:31:00;;;;;;;10.10;3.83;;;;;;;9.53;100.00;100985.44;5053596;28;20450;-71
2023/01/06 11:33:29;;;;;;;8.70;4.17;;;;;;;9.55;100.00;100980.53;5053311;28;20545;-71
2023/01/06 11:36:03;;;;;;;7.60;2.93;;;;;;;9.55;100.00;100987.84;5053142;28;20444;-72
2023/01/06 11:38:30;;;;;;;8.93;3.80;;;;;;;9.58;100.00;100982.69;5052811;28;20467;-72
2023/01/06 11:40:56;;;;;;;7.87;3.30;;;;;;;9.63;100.00;100984.53;5052342;28;20501;-72